sensor_id;sensor_type;location;lat;lon;timestamp;P1;durP1;ratioP1;P2;durP2;ratioP2
68947;SDS011;55996;49.546;7.400;2024-03-23T00:55:49;6.43;;;4.67;;
68947;SDS011;55996;49.546;7.400;2024-03-23T00:58:14;7.90;;;5.10;;
68947;SDS011;55996;49.546;7.400;2024-03-23T01:00:40;5.13;;;4.27;;
68947;SDS011;55996;49.546;7.400;2024-03-23T01:03:05;5.13;;;4.63;;
68947;SDS011;55996;49.546;7.400;2024-03-23T01:05:30;6.87;;;4.73;;
68947;SDS011;55996;49.546;7.400;2024-03-23T01:07:56;6.67;;;4.90;;
68947;SDS011;55996;49.546;7.400;2024-03-23T01:10:21;7.63;;;4.93;;
68947;SDS011;55996;49.546;7.400;2024-03-23T01:12:47;5.03;;;4.40;;
68947;SDS011;55996;49.546;7.400;2024-03-23T01:15:12;6.57;;;4.93;;
68947;SDS011;55996;49.546;7.400;2024-03-23T01:17:37;5.53;;;4.90;;
68947;SDS011;55996;49.546;7.400;2024-03-23T01:20:03;6.23;;;4.63;;
68947;SDS011;55996;49.546;7.400;2024-03-23T01:22:29;7.27;;;5.43;;
68947;SDS011;55996;49.546;7.400;2024-03-23T01:24:54;7.10;;;4.77;;
68947;SDS011;55996;49.546;7.400;2024-03-23T01:27:19;5.43;;;4.63;;
68947;SDS011;55996;49.546;7.400;2024-03-23T01:29:45;6.93;;;5.73;;
68947;SDS011;55996;49.546;7.400;2024-03-23T01:32:10;6.93;;;4.87;;
68947;SDS011;55996;49.546;7.400;2024-03-23T01:34:35;5.43;;;4.40;;
68947;SDS011;55996;49.546;7.400;2024-03-23T01:37:01;6.73;;;4.73;;
68947;SDS011;55996;49.546;7.400;2024-03-23T01:39:26;6.27;;;4.57;;
68947;SDS011;55996;49.546;7.400;2024-03-23T01:41:52;6.17;;;4.43;;
68947;SDS011;55996;49.546;7.400;2024-03-23T01:44:17;6.30;;;4.90;;
68947;SDS011;55996;49.546;7.400;2024-03-23T01:46:43;7.07;;;4.70;;
68947;SDS011;55996;49.546;7.400;2024-03-23T01:49:09;7.17;;;4.77;;
68947;SDS011;55996;49.546;7.400;2024-03-23T01:51:34;8.37;;;5.57;;
68947;SDS011;55996;49.546;7.400;2024-03-23T01:54:04;5.97;;;4.77;;
68947;SDS011;55996;49.546;7.400;2024-03-23T01:56:34;8.60;;;6.00;;
68947;SDS011;55996;49.546;7.400;2024-03-23T01:59:00;5.87;;;5.20;;
68947;SDS011;55996;49.546;7.400;2024-03-23T02:01:30;6.87;;;5.13;;
68947;SDS011;55996;49.546;7.400;2024-03-23T02:03:56;8.13;;;6.10;;
68947;SDS011;55996;49.546;7.400;2024-03-23T02:06:22;8.20;;;5.30;;
68947;SDS011;55996;49.546;7.400;2024-03-23T02:08:48;8.17;;;5.23;;
68947;SDS011;55996;49.546;7.400;2024-03-23T02:11:14;6.40;;;5.80;;
68947;SDS011;55996;49.546;7.400;2024-03-23T02:13:39;8.10;;;5.97;;
68947;SDS011;55996;49.546;7.400;2024-03-23T02:16:05;8.30;;;6.37;;
68947;SDS011;55996;49.546;7.400;2024-03-23T02:18:31;9.07;;;6.37;;
68947;SDS011;55996;49.546;7.400;2024-03-23T02:20:57;10.33;;;7.03;;
68947;SDS011;55996;49.546;7.400;2024-03-23T02:23:22;10.13;;;7.00;;
68947;SDS011;55996;49.546;7.400;2024-03-23T02:25:49;11.60;;;6.83;;
68947;SDS011;55996;49.546;7.400;2024-03-23T02:28:15;10.17;;;6.77;;
68947;SDS011;55996;49.546;7.400;2024-03-23T02:30:40;11.30;;;7.60;;
68947;SDS011;55996;49.546;7.400;2024-03-23T02:33:05;11.87;;;6.63;;
68947;SDS011;55996;49.546;7.400;2024-03-23T02:35:31;13.80;;;7.63;;
68947;SDS011;55996;49.546;7.400;2024-03-23T02:37:56;11.07;;;6.67;;
68947;SDS011;55996;49.546;7.400;2024-03-23T02:40:22;12.40;;;7.13;;
68947;SDS011;55996;49.546;7.400;2024-03-23T02:42:48;11.70;;;7.23;;
68947;SDS011;55996;49.546;7.400;2024-03-23T02:45:14;9.33;;;6.27;;
68947;SDS011;55996;49.546;7.400;2024-03-23T02:47:39;11.07;;;6.50;;
68947;SDS011;55996;49.546;7.400;2024-03-23T02:50:05;13.93;;;7.90;;
68947;SDS011;55996;49.546;7.400;2024-03-23T02:52:30;11.50;;;7.63;;
68947;SDS011;55996;49.546;7.400;2024-03-23T02:54:56;11.10;;;6.47;;
68947;SDS011;55996;49.546;7.400;2024-03-23T02:57:21;11.73;;;6.93;;
68947;SDS011;55996;49.546;7.400;2024-03-23T02:59:47;8.27;;;6.00;;
68947;SDS011;55996;49.546;7.400;2024-03-23T03:02:13;15.33;;;7.10;;
68947;SDS011;55996;49.546;7.400;2024-03-23T03:04:39;10.73;;;6.57;;
68947;SDS011;55996;49.546;7.400;2024-03-23T03:07:04;11.37;;;6.87;;
68947;SDS011;55996;49.546;7.400;2024-03-23T03:09:30;10.17;;;5.70;;
68947;SDS011;55996;49.546;7.400;2024-03-23T03:11:55;9.20;;;5.97;;
68947;SDS011;55996;49.546;7.400;2024-03-23T03:14:20;9.00;;;6.27;;
68947;SDS011;55996;49.546;7.400;2024-03-23T03:16:46;10.13;;;5.97;;
68947;SDS011;55996;49.546;7.400;2024-03-23T03:19:11;7.77;;;5.23;;
68947;SDS011;55996;49.546;7.400;2024-03-23T03:21:37;8.27;;;5.27;;
68947;SDS011;55996;49.546;7.400;2024-03-23T03:24:03;8.17;;;4.90;;
68947;SDS011;55996;49.546;7.400;2024-03-23T03:26:28;6.57;;;4.63;;
68947;SDS011;55996;49.546;7.400;2024-03-23T03:28:54;9.57;;;4.53;;
68947;SDS011;55996;49.546;7.400;2024-03-23T03:31:19;9.03;;;5.37;;
68947;SDS011;55996;49.546;7.400;2024-03-23T03:33:45;5.37;;;3.97;;
68947;SDS011;55996;49.546;7.400;2024-03-23T03:36:11;5.73;;;4.17;;
68947;SDS011;55996;49.546;7.400;2024-03-23T03:38:36;5.10;;;3.87;;
68947;SDS011;55996;49.546;7.400;2024-03-23T03:41:02;7.93;;;5.10;;
68947;SDS011;55996;49.546;7.400;2024-03-23T03:43:28;5.63;;;4.20;;
68947;SDS011;55996;49.546;7.400;2024-03-23T03:45:54;6.53;;;4.60;;
68947;SDS011;55996;49.546;7.400;2024-03-23T03:48:20;8.10;;;5.90;;
68947;SDS011;55996;49.546;7.400;2024-03-23T03:50:45;6.57;;;5.10;;
68947;SDS011;55996;49.546;7.400;2024-03-23T03:53:11;8.33;;;5.37;;
68947;SDS011;55996;49.546;7.400;2024-03-23T03:55:36;4.33;;;3.20;;
68947;SDS011;55996;49.546;7.400;2024-03-23T03:58:02;3.30;;;3.00;;
68947;SDS011;55996;49.546;7.400;2024-03-23T04:00:27;3.33;;;2.33;;
68947;SDS011;55996;49.546;7.400;2024-03-23T04:02:52;2.27;;;2.07;;
68947;SDS011;55996;49.546;7.400;2024-03-23T04:05:18;1.73;;;1.63;;
68947;SDS011;55996;49.546;7.400;2024-03-23T04:07:44;1.20;;;1.07;;
68947;SDS011;55996;49.546;7.400;2024-03-23T04:10:10;1.13;;;1.03;;
68947;SDS011;55996;49.546;7.400;2024-03-23T04:12:36;1.33;;;1.23;;
68947;SDS011;55996;49.546;7.400;2024-03-23T04:15:02;1.20;;;1.10;;
68947;SDS011;55996;49.546;7.400;2024-03-23T04:17:29;0.97;;;0.60;;
68947;SDS011;55996;49.546;7.400;2024-03-23T04:19:59;0.83;;;0.83;;
68947;SDS011;55996;49.546;7.400;2024-03-23T04:22:26;1.10;;;0.93;;
68947;SDS011;55996;49.546;7.400;2024-03-23T04:24:57;0.50;;;0.50;;
68947;SDS011;55996;49.546;7.400;2024-03-23T04:27:23;0.90;;;0.90;;
68947;SDS011;55996;49.546;7.400;2024-03-23T04:29:49;0.77;;;0.77;;
68947;SDS011;55996;49.546;7.400;2024-03-23T04:32:15;0.70;;;0.63;;
68947;SDS011;55996;49.546;7.400;2024-03-23T04:34:41;0.60;;;0.60;;
68947;SDS011;55996;49.546;7.400;2024-03-23T04:37:08;0.53;;;0.50;;
68947;SDS011;55996;49.546;7.400;2024-03-23T04:39:34;0.40;;;0.40;;
68947;SDS011;55996;49.546;7.400;2024-03-23T04:42:00;0.50;;;0.50;;
68947;SDS011;55996;49.546;7.400;2024-03-23T04:44:26;0.50;;;0.50;;
68947;SDS011;55996;49.546;7.400;2024-03-23T04:46:51;0.40;;;0.40;;
68947;SDS011;55996;49.546;7.400;2024-03-23T04:49:17;0.50;;;0.50;;
68947;SDS011;55996;49.546;7.400;2024-03-23T04:51:42;0.40;;;0.40;;
68947;SDS011;55996;49.546;7.400;2024-03-23T04:54:11;0.33;;;0.33;;
68947;SDS011;55996;49.546;7.400;2024-03-23T04:56:39;0.23;;;0.23;;
68947;SDS011;55996;49.546;7.400;2024-03-23T04:59:04;0.30;;;0.30;;
68947;SDS011;55996;49.546;7.400;2024-03-23T05:01:30;0.50;;;0.50;;
68947;SDS011;55996;49.546;7.400;2024-03-23T05:03:56;0.50;;;0.50;;
68947;SDS011;55996;49.546;7.400;2024-03-23T05:06:22;0.20;;;0.20;;
68947;SDS011;55996;49.546;7.400;2024-03-23T05:08:48;0.40;;;0.40;;
68947;SDS011;55996;49.546;7.400;2024-03-23T05:11:14;0.33;;;0.33;;
68947;SDS011;55996;49.546;7.400;2024-03-23T05:13:40;0.37;;;0.37;;
68947;SDS011;55996;49.546;7.400;2024-03-23T05:16:08;0.30;;;0.30;;
68947;SDS011;55996;49.546;7.400;2024-03-23T05:18:34;0.37;;;0.37;;
68947;SDS011;55996;49.546;7.400;2024-03-23T05:20:59;0.27;;;0.27;;
68947;SDS011;55996;49.546;7.400;2024-03-23T05:23:26;0.23;;;0.23;;
68947;SDS011;55996;49.546;7.400;2024-03-23T05:25:52;0.27;;;0.27;;
68947;SDS011;55996;49.546;7.400;2024-03-23T05:28:18;0.30;;;0.30;;
68947;SDS011;55996;49.546;7.400;2024-03-23T05:30:44;0.50;;;0.50;;
68947;SDS011;55996;49.546;7.400;2024-03-23T05:33:14;0.30;;;0.30;;
68947;SDS011;55996;49.546;7.400;2024-03-23T05:35:40;0.37;;;0.37;;
68947;SDS011;55996;49.546;7.400;2024-03-23T05:38:05;0.60;;;0.60;;
68947;SDS011;55996;49.546;7.400;2024-03-23T05:40:31;0.33;;;0.33;;
68947;SDS011;55996;49.546;7.400;2024-03-23T05:42:56;0.40;;;0.40;;
68947;SDS011;55996;49.546;7.400;2024-03-23T05:45:22;0.40;;;0.40;;
68947;SDS011;55996;49.546;7.400;2024-03-23T05:47:47;0.50;;;0.50;;
68947;SDS011;55996;49.546;7.400;2024-03-23T05:50:13;0.37;;;0.37;;
68947;SDS011;55996;49.546;7.400;2024-03-23T05:52:39;0.30;;;0.30;;
68947;SDS011;55996;49.546;7.400;2024-03-23T05:55:05;0.30;;;0.30;;
68947;SDS011;55996;49.546;7.400;2024-03-23T05:57:31;0.33;;;0.33;;
68947;SDS011;55996;49.546;7.400;2024-03-23T05:59:56;0.37;;;0.30;;
68947;SDS011;55996;49.546;7.400;2024-03-23T06:02:22;0.30;;;0.30;;
68947;SDS011;55996;49.546;7.400;2024-03-23T06:04:48;0.30;;;0.30;;
68947;SDS011;55996;49.546;7.400;2024-03-23T06:07:13;0.40;;;0.40;;
68947;SDS011;55996;49.546;7.400;2024-03-23T06:09:40;0.33;;;0.33;;
68947;SDS011;55996;49.546;7.400;2024-03-23T06:12:06;0.57;;;0.57;;
68947;SDS011;55996;49.546;7.400;2024-03-23T06:14:32;0.30;;;0.30;;
68947;SDS011;55996;49.546;7.400;2024-03-23T06:16:58;0.67;;;0.67;;
68947;SDS011;55996;49.546;7.400;2024-03-23T06:19:24;0.73;;;0.70;;
68947;SDS011;55996;49.546;7.400;2024-03-23T06:21:52;0.50;;;0.50;;
68947;SDS011;55996;49.546;7.400;2024-03-23T06:24:17;0.60;;;0.60;;
68947;SDS011;55996;49.546;7.400;2024-03-23T06:26:43;0.47;;;0.47;;
68947;SDS011;55996;49.546;7.400;2024-03-23T06:29:08;0.70;;;0.50;;
68947;SDS011;55996;49.546;7.400;2024-03-23T06:31:34;3.10;;;0.67;;
68947;SDS011;55996;49.546;7.400;2024-03-23T06:33:59;0.93;;;0.87;;
68947;SDS011;55996;49.546;7.400;2024-03-23T06:36:26;0.70;;;0.70;;
68947;SDS011;55996;49.546;7.400;2024-03-23T06:38:52;2.10;;;1.00;;
68947;SDS011;55996;49.546;7.400;2024-03-23T06:41:17;1.23;;;1.00;;
68947;SDS011;55996;49.546;7.400;2024-03-23T06:43:44;0.87;;;0.87;;
68947;SDS011;55996;49.546;7.400;2024-03-23T06:46:09;1.00;;;1.00;;
68947;SDS011;55996;49.546;7.400;2024-03-23T06:48:34;1.43;;;0.90;;
68947;SDS011;55996;49.546;7.400;2024-03-23T06:51:00;1.33;;;1.00;;
68947;SDS011;55996;49.546;7.400;2024-03-23T06:53:25;1.00;;;0.90;;
68947;SDS011;55996;49.546;7.400;2024-03-23T06:55:51;0.90;;;0.90;;
68947;SDS011;55996;49.546;7.400;2024-03-23T06:58:18;5.73;;;1.30;;
68947;SDS011;55996;49.546;7.400;2024-03-23T07:00:48;1.30;;;1.20;;
68947;SDS011;55996;49.546;7.400;2024-03-23T07:03:14;1.40;;;1.30;;
68947;SDS011;55996;49.546;7.400;2024-03-23T07:05:39;1.73;;;1.40;;
68947;SDS011;55996;49.546;7.400;2024-03-23T07:08:05;1.27;;;1.17;;
68947;SDS011;55996;49.546;7.400;2024-03-23T07:10:30;1.40;;;1.30;;
68947;SDS011;55996;49.546;7.400;2024-03-23T07:12:56;1.30;;;1.20;;
68947;SDS011;55996;49.546;7.400;2024-03-23T07:15:21;1.37;;;1.27;;
68947;SDS011;55996;49.546;7.400;2024-03-23T07:17:47;1.23;;;1.13;;
68947;SDS011;55996;49.546;7.400;2024-03-23T07:20:13;3.77;;;1.30;;
68947;SDS011;55996;49.546;7.400;2024-03-23T07:22:38;1.90;;;1.20;;
68947;SDS011;55996;49.546;7.400;2024-03-23T07:25:04;1.50;;;1.40;;
68947;SDS011;55996;49.546;7.400;2024-03-23T07:27:31;2.43;;;1.43;;
68947;SDS011;55996;49.546;7.400;2024-03-23T07:29:56;2.47;;;1.57;;
68947;SDS011;55996;49.546;7.400;2024-03-23T07:32:21;1.43;;;1.23;;
68947;SDS011;55996;49.546;7.400;2024-03-23T07:34:47;3.63;;;1.53;;
68947;SDS011;55996;49.546;7.400;2024-03-23T07:37:12;1.80;;;1.50;;
68947;SDS011;55996;49.546;7.400;2024-03-23T07:39:39;1.33;;;1.20;;
68947;SDS011;55996;49.546;7.400;2024-03-23T07:42:04;2.20;;;1.67;;
68947;SDS011;55996;49.546;7.400;2024-03-23T07:44:30;1.90;;;1.50;;
68947;SDS011;55996;49.546;7.400;2024-03-23T07:46:56;5.03;;;1.80;;
68947;SDS011;55996;49.546;7.400;2024-03-23T07:49:21;1.47;;;1.37;;
68947;SDS011;55996;49.546;7.400;2024-03-23T07:51:47;1.97;;;1.83;;
68947;SDS011;55996;49.546;7.400;2024-03-23T07:54:12;3.10;;;1.77;;
68947;SDS011;55996;49.546;7.400;2024-03-23T07:56:38;3.40;;;2.30;;
68947;SDS011;55996;49.546;7.400;2024-03-23T07:59:03;5.47;;;2.07;;
68947;SDS011;55996;49.546;7.400;2024-03-23T08:01:29;2.10;;;1.90;;
68947;SDS011;55996;49.546;7.400;2024-03-23T08:03:54;3.07;;;2.10;;
68947;SDS011;55996;49.546;7.400;2024-03-23T08:06:20;4.40;;;1.90;;
68947;SDS011;55996;49.546;7.400;2024-03-23T08:08:48;2.23;;;1.73;;
68947;SDS011;55996;49.546;7.400;2024-03-23T08:11:16;2.63;;;2.00;;
68947;SDS011;55996;49.546;7.400;2024-03-23T08:13:42;2.03;;;1.60;;
68947;SDS011;55996;49.546;7.400;2024-03-23T08:16:10;2.53;;;2.00;;
68947;SDS011;55996;49.546;7.400;2024-03-23T08:18:35;2.80;;;1.73;;
68947;SDS011;55996;49.546;7.400;2024-03-23T08:21:04;2.43;;;1.87;;
68947;SDS011;55996;49.546;7.400;2024-03-23T08:23:31;1.90;;;1.70;;
68947;SDS011;55996;49.546;7.400;2024-03-23T08:26:07;3.03;;;1.90;;
68947;SDS011;55996;49.546;7.400;2024-03-23T08:28:34;2.20;;;2.00;;
68947;SDS011;55996;49.546;7.400;2024-03-23T08:31:04;3.33;;;2.30;;
68947;SDS011;55996;49.546;7.400;2024-03-23T08:33:33;2.57;;;1.67;;
68947;SDS011;55996;49.546;7.400;2024-03-23T08:36:00;2.93;;;1.67;;
68947;SDS011;55996;49.546;7.400;2024-03-23T08:38:27;2.13;;;1.50;;
68947;SDS011;55996;49.546;7.400;2024-03-23T08:40:59;2.93;;;1.73;;
68947;SDS011;55996;49.546;7.400;2024-03-23T08:43:38;2.53;;;1.73;;
68947;SDS011;55996;49.546;7.400;2024-03-23T08:48:32;3.80;;;1.67;;
68947;SDS011;55996;49.546;7.400;2024-03-23T08:53:27;3.63;;;1.70;;
68947;SDS011;55996;49.546;7.400;2024-03-23T08:55:54;2.30;;;1.70;;
68947;SDS011;55996;49.546;7.400;2024-03-23T08:58:20;2.33;;;1.60;;
68947;SDS011;55996;49.546;7.400;2024-03-23T09:00:45;2.40;;;1.70;;
68947;SDS011;55996;49.546;7.400;2024-03-23T09:03:11;1.83;;;1.63;;
68947;SDS011;55996;49.546;7.400;2024-03-23T09:05:40;2.27;;;1.67;;
68947;SDS011;55996;49.546;7.400;2024-03-23T09:08:06;2.73;;;1.30;;
68947;SDS011;55996;49.546;7.400;2024-03-23T09:10:34;2.33;;;1.50;;
68947;SDS011;55996;49.546;7.400;2024-03-23T09:13:03;4.17;;;1.70;;
68947;SDS011;55996;49.546;7.400;2024-03-23T09:15:28;5.93;;;2.07;;
68947;SDS011;55996;49.546;7.400;2024-03-23T09:17:54;2.03;;;1.33;;
68947;SDS011;55996;49.546;7.400;2024-03-23T09:20:19;4.37;;;1.57;;
68947;SDS011;55996;49.546;7.400;2024-03-23T09:22:45;2.90;;;1.67;;
68947;SDS011;55996;49.546;7.400;2024-03-23T09:25:10;2.60;;;1.50;;
68947;SDS011;55996;49.546;7.400;2024-03-23T09:27:35;1.63;;;1.20;;
68947;SDS011;55996;49.546;7.400;2024-03-23T09:30:01;2.90;;;1.40;;
68947;SDS011;55996;49.546;7.400;2024-03-23T09:32:26;1.50;;;1.40;;
68947;SDS011;55996;49.546;7.400;2024-03-23T09:34:51;1.50;;;1.23;;
68947;SDS011;55996;49.546;7.400;2024-03-23T09:37:17;1.30;;;1.20;;
68947;SDS011;55996;49.546;7.400;2024-03-23T09:39:42;3.63;;;1.40;;
68947;SDS011;55996;49.546;7.400;2024-03-23T09:42:07;1.17;;;1.10;;
68947;SDS011;55996;49.546;7.400;2024-03-23T09:44:33;2.00;;;1.53;;
68947;SDS011;55996;49.546;7.400;2024-03-23T09:47:00;1.30;;;1.20;;
68947;SDS011;55996;49.546;7.400;2024-03-23T09:49:26;2.17;;;1.20;;
68947;SDS011;55996;49.546;7.400;2024-03-23T09:51:52;5.37;;;1.30;;
68947;SDS011;55996;49.546;7.400;2024-03-23T09:54:20;2.00;;;1.50;;
68947;SDS011;55996;49.546;7.400;2024-03-23T09:56:46;3.30;;;1.60;;
68947;SDS011;55996;49.546;7.400;2024-03-23T09:59:12;1.10;;;1.00;;
68947;SDS011;55996;49.546;7.400;2024-03-23T10:01:37;0.77;;;0.77;;
68947;SDS011;55996;49.546;7.400;2024-03-23T10:04:03;3.40;;;1.70;;
68947;SDS011;55996;49.546;7.400;2024-03-23T10:06:28;2.43;;;1.13;;
68947;SDS011;55996;49.546;7.400;2024-03-23T10:08:53;1.17;;;1.10;;
68947;SDS011;55996;49.546;7.400;2024-03-23T10:11:20;3.50;;;1.33;;
68947;SDS011;55996;49.546;7.400;2024-03-23T10:13:46;1.53;;;1.17;;
68947;SDS011;55996;49.546;7.400;2024-03-23T10:16:12;0.80;;;0.80;;
68947;SDS011;55996;49.546;7.400;2024-03-23T10:18:46;1.20;;;0.97;;
68947;SDS011;55996;49.546;7.400;2024-03-23T10:21:13;2.07;;;1.20;;
68947;SDS011;55996;49.546;7.400;2024-03-23T10:23:43;1.27;;;1.13;;
68947;SDS011;55996;49.546;7.400;2024-03-23T10:26:13;1.00;;;0.93;;
68947;SDS011;55996;49.546;7.400;2024-03-23T10:28:52;1.73;;;1.40;;
68947;SDS011;55996;49.546;7.400;2024-03-23T10:31:18;1.50;;;1.40;;
68947;SDS011;55996;49.546;7.400;2024-03-23T10:33:45;3.53;;;1.63;;
68947;SDS011;55996;49.546;7.400;2024-03-23T10:36:11;2.27;;;1.40;;
68947;SDS011;55996;49.546;7.400;2024-03-23T10:38:39;1.60;;;1.20;;
68947;SDS011;55996;49.546;7.400;2024-03-23T10:41:06;1.60;;;1.50;;
68947;SDS011;55996;49.546;7.400;2024-03-23T10:43:34;1.23;;;1.17;;
68947;SDS011;55996;49.546;7.400;2024-03-23T10:46:01;2.87;;;1.20;;
68947;SDS011;55996;49.546;7.400;2024-03-23T10:48:27;2.30;;;1.13;;
68947;SDS011;55996;49.546;7.400;2024-03-23T10:53:41;1.50;;;1.30;;
68947;SDS011;55996;49.546;7.400;2024-03-23T10:56:07;1.47;;;1.27;;
68947;SDS011;55996;49.546;7.400;2024-03-23T10:58:43;3.10;;;1.30;;
68947;SDS011;55996;49.546;7.400;2024-03-23T11:01:11;1.50;;;1.30;;
68947;SDS011;55996;49.546;7.400;2024-03-23T11:03:38;1.47;;;1.20;;
68947;SDS011;55996;49.546;7.400;2024-03-23T11:06:05;1.13;;;1.03;;
68947;SDS011;55996;49.546;7.400;2024-03-23T11:11:17;1.50;;;1.40;;
68947;SDS011;55996;49.546;7.400;2024-03-23T11:13:44;3.20;;;1.53;;
68947;SDS011;55996;49.546;7.400;2024-03-23T11:16:16;0.80;;;0.80;;
68947;SDS011;55996;49.546;7.400;2024-03-23T11:18:42;3.03;;;1.00;;
68947;SDS011;55996;49.546;7.400;2024-03-23T11:21:09;1.03;;;0.93;;
68947;SDS011;55996;49.546;7.400;2024-03-23T11:23:35;1.00;;;1.00;;
68947;SDS011;55996;49.546;7.400;2024-03-23T11:26:01;0.80;;;0.80;;
68947;SDS011;55996;49.546;7.400;2024-03-23T11:28:26;1.20;;;1.10;;
68947;SDS011;55996;49.546;7.400;2024-03-23T11:30:52;0.80;;;0.80;;
68947;SDS011;55996;49.546;7.400;2024-03-23T11:33:17;0.70;;;0.70;;
68947;SDS011;55996;49.546;7.400;2024-03-23T11:35:43;0.80;;;0.77;;
68947;SDS011;55996;49.546;7.400;2024-03-23T11:40:43;0.73;;;0.73;;
68947;SDS011;55996;49.546;7.400;2024-03-23T11:43:13;2.47;;;1.10;;
68947;SDS011;55996;49.546;7.400;2024-03-23T11:48:14;1.10;;;1.00;;
68947;SDS011;55996;49.546;7.400;2024-03-23T11:50:44;0.83;;;0.83;;
68947;SDS011;55996;49.546;7.400;2024-03-23T11:55:42;0.87;;;0.87;;
68947;SDS011;55996;49.546;7.400;2024-03-23T11:58:14;1.53;;;0.60;;
68947;SDS011;55996;49.546;7.400;2024-03-23T12:00:41;0.63;;;0.63;;
68947;SDS011;55996;49.546;7.400;2024-03-23T12:03:07;0.63;;;0.63;;
68947;SDS011;55996;49.546;7.400;2024-03-23T12:05:32;1.83;;;1.10;;
68947;SDS011;55996;49.546;7.400;2024-03-23T12:08:17;0.67;;;0.60;;
68947;SDS011;55996;49.546;7.400;2024-03-23T12:10:44;0.57;;;0.57;;
68947;SDS011;55996;49.546;7.400;2024-03-23T12:13:14;0.70;;;0.70;;
68947;SDS011;55996;49.546;7.400;2024-03-23T12:15:50;0.60;;;0.40;;
68947;SDS011;55996;49.546;7.400;2024-03-23T12:18:23;0.73;;;0.73;;
68947;SDS011;55996;49.546;7.400;2024-03-23T12:20:49;0.60;;;0.60;;
68947;SDS011;55996;49.546;7.400;2024-03-23T12:23:15;0.70;;;0.60;;
68947;SDS011;55996;49.546;7.400;2024-03-23T12:25:40;2.93;;;0.83;;
68947;SDS011;55996;49.546;7.400;2024-03-23T12:28:06;0.40;;;0.40;;
68947;SDS011;55996;49.546;7.400;2024-03-23T12:30:36;0.60;;;0.60;;
68947;SDS011;55996;49.546;7.400;2024-03-23T12:33:06;0.97;;;0.53;;
68947;SDS011;55996;49.546;7.400;2024-03-23T12:35:31;0.50;;;0.50;;
68947;SDS011;55996;49.546;7.400;2024-03-23T12:37:57;0.30;;;0.30;;
68947;SDS011;55996;49.546;7.400;2024-03-23T12:40:22;0.43;;;0.40;;
68947;SDS011;55996;49.546;7.400;2024-03-23T12:42:48;0.40;;;0.40;;
68947;SDS011;55996;49.546;7.400;2024-03-23T12:45:13;0.30;;;0.30;;
68947;SDS011;55996;49.546;7.400;2024-03-23T12:47:39;0.67;;;0.67;;
68947;SDS011;55996;49.546;7.400;2024-03-23T12:50:04;0.93;;;0.93;;
68947;SDS011;55996;49.546;7.400;2024-03-23T12:52:31;0.70;;;0.70;;
68947;SDS011;55996;49.546;7.400;2024-03-23T12:54:57;0.43;;;0.43;;
68947;SDS011;55996;49.546;7.400;2024-03-23T12:57:23;1.13;;;0.83;;
68947;SDS011;55996;49.546;7.400;2024-03-23T12:59:49;0.40;;;0.40;;
68947;SDS011;55996;49.546;7.400;2024-03-23T13:02:16;0.30;;;0.30;;
68947;SDS011;55996;49.546;7.400;2024-03-23T13:04:42;1.53;;;0.60;;
68947;SDS011;55996;49.546;7.400;2024-03-23T13:07:08;0.60;;;0.60;;
68947;SDS011;55996;49.546;7.400;2024-03-23T13:09:33;0.40;;;0.40;;
68947;SDS011;55996;49.546;7.400;2024-03-23T13:14:46;0.60;;;0.60;;
68947;SDS011;55996;49.546;7.400;2024-03-23T13:17:12;0.50;;;0.50;;
68947;SDS011;55996;49.546;7.400;2024-03-23T13:19:37;0.53;;;0.53;;
68947;SDS011;55996;49.546;7.400;2024-03-23T13:22:03;0.70;;;0.70;;
68947;SDS011;55996;49.546;7.400;2024-03-23T13:24:29;0.33;;;0.33;;
68947;SDS011;55996;49.546;7.400;2024-03-23T13:26:55;0.50;;;0.50;;
68947;SDS011;55996;49.546;7.400;2024-03-23T13:29:21;0.83;;;0.43;;
68947;SDS011;55996;49.546;7.400;2024-03-23T13:31:47;0.70;;;0.70;;
68947;SDS011;55996;49.546;7.400;2024-03-23T13:34:13;0.60;;;0.60;;
68947;SDS011;55996;49.546;7.400;2024-03-23T13:36:40;0.80;;;0.63;;
68947;SDS011;55996;49.546;7.400;2024-03-23T13:39:08;0.40;;;0.40;;
68947;SDS011;55996;49.546;7.400;2024-03-23T13:41:41;0.43;;;0.43;;
68947;SDS011;55996;49.546;7.400;2024-03-23T13:44:07;0.77;;;0.67;;
68947;SDS011;55996;49.546;7.400;2024-03-23T13:46:35;0.63;;;0.63;;
68947;SDS011;55996;49.546;7.400;2024-03-23T13:49:01;0.30;;;0.30;;
68947;SDS011;55996;49.546;7.400;2024-03-23T13:51:26;1.70;;;0.50;;
68947;SDS011;55996;49.546;7.400;2024-03-23T13:53:55;0.77;;;0.37;;
68947;SDS011;55996;49.546;7.400;2024-03-23T13:56:21;0.40;;;0.40;;
68947;SDS011;55996;49.546;7.400;2024-03-23T13:58:56;0.40;;;0.40;;
68947;SDS011;55996;49.546;7.400;2024-03-23T14:01:23;0.77;;;0.40;;
68947;SDS011;55996;49.546;7.400;2024-03-23T14:03:51;0.90;;;0.50;;
68947;SDS011;55996;49.546;7.400;2024-03-23T14:06:16;0.57;;;0.47;;
68947;SDS011;55996;49.546;7.400;2024-03-23T14:08:42;1.47;;;0.60;;
68947;SDS011;55996;49.546;7.400;2024-03-23T14:11:08;0.57;;;0.57;;
68947;SDS011;55996;49.546;7.400;2024-03-23T14:13:35;0.53;;;0.40;;
68947;SDS011;55996;49.546;7.400;2024-03-23T14:16:00;0.40;;;0.40;;
68947;SDS011;55996;49.546;7.400;2024-03-23T14:18:32;0.73;;;0.30;;
68947;SDS011;55996;49.546;7.400;2024-03-23T14:20:58;1.20;;;0.60;;
68947;SDS011;55996;49.546;7.400;2024-03-23T14:23:28;0.43;;;0.40;;
68947;SDS011;55996;49.546;7.400;2024-03-23T14:25:55;0.30;;;0.30;;
68947;SDS011;55996;49.546;7.400;2024-03-23T14:28:24;0.27;;;0.27;;
68947;SDS011;55996;49.546;7.400;2024-03-23T14:30:50;0.37;;;0.37;;
68947;SDS011;55996;49.546;7.400;2024-03-23T14:33:16;0.40;;;0.40;;
68947;SDS011;55996;49.546;7.400;2024-03-23T14:35:43;0.30;;;0.30;;
68947;SDS011;55996;49.546;7.400;2024-03-23T14:38:08;0.63;;;0.63;;
68947;SDS011;55996;49.546;7.400;2024-03-23T14:40:33;0.40;;;0.30;;
68947;SDS011;55996;49.546;7.400;2024-03-23T14:42:59;0.30;;;0.30;;
68947;SDS011;55996;49.546;7.400;2024-03-23T14:45:24;0.40;;;0.40;;
68947;SDS011;55996;49.546;7.400;2024-03-23T14:47:51;0.40;;;0.40;;
68947;SDS011;55996;49.546;7.400;2024-03-23T14:50:16;0.73;;;0.40;;
68947;SDS011;55996;49.546;7.400;2024-03-23T14:52:45;0.47;;;0.47;;
68947;SDS011;55996;49.546;7.400;2024-03-23T14:55:11;0.37;;;0.37;;
68947;SDS011;55996;49.546;7.400;2024-03-23T14:57:37;2.40;;;0.60;;
68947;SDS011;55996;49.546;7.400;2024-03-23T15:00:05;0.50;;;0.50;;
68947;SDS011;55996;49.546;7.400;2024-03-23T15:02:35;0.50;;;0.50;;
68947;SDS011;55996;49.546;7.400;2024-03-23T15:05:01;0.50;;;0.50;;
68947;SDS011;55996;49.546;7.400;2024-03-23T15:07:28;1.07;;;0.40;;
68947;SDS011;55996;49.546;7.400;2024-03-23T15:09:54;0.97;;;0.47;;
68947;SDS011;55996;49.546;7.400;2024-03-23T15:12:19;0.47;;;0.47;;
68947;SDS011;55996;49.546;7.400;2024-03-23T15:14:46;0.40;;;0.40;;
68947;SDS011;55996;49.546;7.400;2024-03-23T15:17:11;0.40;;;0.40;;
68947;SDS011;55996;49.546;7.400;2024-03-23T15:19:36;0.50;;;0.50;;
68947;SDS011;55996;49.546;7.400;2024-03-23T15:22:02;0.50;;;0.50;;
68947;SDS011;55996;49.546;7.400;2024-03-23T15:24:27;0.53;;;0.53;;
68947;SDS011;55996;49.546;7.400;2024-03-23T15:26:53;2.40;;;0.70;;
68947;SDS011;55996;49.546;7.400;2024-03-23T15:29:20;1.37;;;0.53;;
68947;SDS011;55996;49.546;7.400;2024-03-23T15:31:47;1.33;;;0.77;;
68947;SDS011;55996;49.546;7.400;2024-03-23T15:34:15;0.97;;;0.50;;
68947;SDS011;55996;49.546;7.400;2024-03-23T15:36:40;0.40;;;0.40;;
68947;SDS011;55996;49.546;7.400;2024-03-23T15:39:06;1.60;;;0.50;;
68947;SDS011;55996;49.546;7.400;2024-03-23T15:41:34;0.50;;;0.50;;
68947;SDS011;55996;49.546;7.400;2024-03-23T15:44:01;0.40;;;0.40;;
68947;SDS011;55996;49.546;7.400;2024-03-23T15:46:27;0.43;;;0.43;;
68947;SDS011;55996;49.546;7.400;2024-03-23T15:48:52;0.40;;;0.40;;
68947;SDS011;55996;49.546;7.400;2024-03-23T15:51:19;0.30;;;0.30;;
68947;SDS011;55996;49.546;7.400;2024-03-23T15:53:45;0.60;;;0.50;;
68947;SDS011;55996;49.546;7.400;2024-03-23T15:56:10;0.20;;;0.20;;
68947;SDS011;55996;49.546;7.400;2024-03-23T15:58:35;0.40;;;0.40;;